createdAt,value
2018-01-28T00:00:35.445Z,971.91
2018-01-28T00:01:35.468Z,971.89
2018-01-28T00:02:35.464Z,971.89
2018-01-28T00:03:35.482Z,971.85
2018-01-28T00:04:35.497Z,971.85
2018-01-28T00:05:35.513Z,971.91
2018-01-28T00:06:35.530Z,971.91
2018-01-28T00:07:35.558Z,971.92
2018-01-28T00:08:35.564Z,972
2018-01-28T00:09:35.593Z,971.97
2018-01-28T00:10:35.609Z,971.94
2018-01-28T00:11:35.615Z,971.94
2018-01-28T00:12:35.632Z,971.93
2018-01-28T00:13:35.649Z,971.94
2018-01-28T00:14:35.666Z,971.89
2018-01-28T00:15:35.682Z,971.87
2018-01-28T00:16:35.706Z,971.89
2018-01-28T00:17:35.716Z,971.85
2018-01-28T00:18:35.732Z,971.86
2018-01-28T00:19:35.749Z,971.86
2018-01-28T00:20:35.777Z,971.81
2018-01-28T00:21:35.782Z,971.81
2018-01-28T00:22:35.812Z,971.81
2018-01-28T00:23:35.818Z,971.86
2018-01-28T00:24:35.833Z,971.8
2018-01-28T00:25:35.849Z,971.82
2018-01-28T00:26:35.879Z,971.8
2018-01-28T00:27:35.883Z,971.83
2018-01-28T00:28:35.904Z,971.84
2018-01-28T00:29:35.915Z,971.81
2018-01-28T00:30:35.934Z,971.81
2018-01-28T00:31:35.961Z,971.82
2018-01-28T00:32:35.966Z,971.73
2018-01-28T00:33:35.984Z,971.77
2018-01-28T00:34:36.000Z,971.77
2018-01-28T00:35:36.017Z,971.76
2018-01-28T00:36:36.034Z,971.76
2018-01-28T00:37:36.051Z,971.78
2018-01-28T00:38:36.068Z,971.74
2018-01-28T00:39:36.085Z,971.73
2018-01-28T00:40:36.103Z,971.75
2018-01-28T00:41:36.118Z,971.73
2018-01-28T00:42:36.146Z,971.69
2018-01-28T00:43:36.151Z,971.67
2018-01-28T00:44:36.169Z,971.65
2018-01-28T00:45:36.188Z,971.63
2018-01-28T00:46:36.202Z,971.62
2018-01-28T00:47:36.219Z,971.64
2018-01-28T00:48:36.236Z,971.66
2018-01-28T00:49:36.253Z,971.62
2018-01-28T00:50:36.270Z,971.69
2018-01-28T00:51:36.287Z,971.66
2018-01-28T00:52:36.307Z,971.7
2018-01-28T00:53:36.328Z,971.69
2018-01-28T00:54:36.336Z,971.66
2018-01-28T00:55:36.354Z,971.74
2018-01-28T00:56:36.370Z,971.71
2018-01-28T00:57:36.388Z,971.72
2018-01-28T00:58:36.403Z,971.69
2018-01-28T00:59:36.419Z,971.69
2018-01-28T01:00:36.455Z,971.72
2018-01-28T01:01:36.453Z,971.76
2018-01-28T01:02:36.471Z,971.79
2018-01-28T01:03:36.487Z,971.83
2018-01-28T01:04:36.504Z,971.83
2018-01-28T01:05:36.520Z,971.81
2018-01-28T01:06:36.538Z,971.81
2018-01-28T01:07:36.554Z,971.85
2018-01-28T01:08:36.571Z,971.84
2018-01-28T01:09:36.587Z,971.9
2018-01-28T01:10:36.605Z,971.88
2018-01-28T01:11:36.622Z,971.93
2018-01-28T01:12:36.636Z,971.93
2018-01-28T01:13:36.655Z,971.94
2018-01-28T01:14:36.671Z,971.99
2018-01-28T01:15:36.695Z,971.99
2018-01-28T01:16:36.706Z,972.04
2018-01-28T01:17:36.721Z,971.99
2018-01-28T01:18:36.739Z,971.96
2018-01-28T01:19:36.755Z,972
2018-01-28T01:20:36.771Z,972.01
2018-01-28T01:21:36.788Z,971.98
2018-01-28T01:22:36.805Z,971.95
2018-01-28T01:23:36.820Z,971.95
2018-01-28T01:24:36.839Z,972
2018-01-28T01:25:36.855Z,971.96
2018-01-28T01:26:36.870Z,971.95
2018-01-28T01:27:36.888Z,971.99
2018-01-28T01:28:36.905Z,971.98
2018-01-28T01:29:36.921Z,971.95
2018-01-28T01:30:36.938Z,971.99
2018-01-28T01:31:36.956Z,972.03
2018-01-28T01:32:36.972Z,971.99
2018-01-28T01:33:36.989Z,971.99
2018-01-28T01:34:37.004Z,971.9
2018-01-28T01:35:37.021Z,971.96
2018-01-28T01:36:37.046Z,971.91
2018-01-28T01:37:37.055Z,971.92
2018-01-28T01:38:37.070Z,971.91
2018-01-28T01:39:37.087Z,971.92
2018-01-28T01:40:37.106Z,971.97
2018-01-28T01:41:37.120Z,971.97
2018-01-28T01:42:37.137Z,972.01
2018-01-28T01:43:37.154Z,972.08
2018-01-28T01:44:37.174Z,972.09
2018-01-28T01:45:37.188Z,972.03
2018-01-28T01:46:37.215Z,971.99
2018-01-28T01:47:37.220Z,972.07
2018-01-28T01:48:37.237Z,972.03
2018-01-28T01:49:37.261Z,971.99
2018-01-28T01:50:37.270Z,972.06
2018-01-28T01:51:37.287Z,972.1
2018-01-28T01:52:37.317Z,972.13
2018-01-28T01:53:37.319Z,972.11
2018-01-28T01:54:37.336Z,972.14
2018-01-28T01:55:37.353Z,972.2
2018-01-28T01:56:37.369Z,972.13
2018-01-28T01:57:37.385Z,972.18
2018-01-28T01:58:37.402Z,972.1
2018-01-28T01:59:37.518Z,972.16
2018-01-28T02:00:37.435Z,972.16
2018-01-28T02:01:37.454Z,972.16
2018-01-28T02:02:37.469Z,972.18
2018-01-28T02:03:37.483Z,972.16
2018-01-28T02:04:37.500Z,972.18
2018-01-28T02:05:37.518Z,972.19
2018-01-28T02:06:37.534Z,972.2
2018-01-28T02:07:37.549Z,972.17
2018-01-28T02:08:37.569Z,972.24
2018-01-28T02:09:37.584Z,972.25
2018-01-28T02:10:37.598Z,972.1
2018-01-28T02:11:37.616Z,972.22
2018-01-28T02:12:37.633Z,972.18
2018-01-28T02:13:37.649Z,972.22
2018-01-28T02:14:37.666Z,972.2
2018-01-28T02:15:37.681Z,972.2
2018-01-28T02:16:37.698Z,972.19
2018-01-28T02:17:37.716Z,972.27
2018-01-28T02:18:37.729Z,972.2
2018-01-28T02:19:37.747Z,972.15
2018-01-28T02:20:37.766Z,972.18
2018-01-28T02:21:37.792Z,972.18
2018-01-28T02:22:37.808Z,972.19
2018-01-28T02:23:37.812Z,972.14
2018-01-28T02:24:37.829Z,972.19
2018-01-28T02:25:37.844Z,972.21
2018-01-28T02:26:37.861Z,972.25
2018-01-28T02:27:37.878Z,972.26
2018-01-28T02:28:37.894Z,972.27
2018-01-28T02:29:37.915Z,972.27
2018-01-28T02:30:37.937Z,972.32
2018-01-28T02:31:37.942Z,972.3
2018-01-28T02:32:37.959Z,972.31
2018-01-28T02:33:37.975Z,972.39
2018-01-28T02:34:37.992Z,972.34
2018-01-28T02:35:38.009Z,972.41
2018-01-28T02:36:38.029Z,972.32
2018-01-28T02:37:38.045Z,972.43
2018-01-28T02:38:38.058Z,972.37
2018-01-28T02:39:38.073Z,972.38
2018-01-28T02:40:38.092Z,972.39
2018-01-28T02:41:38.106Z,972.32
2018-01-28T02:42:38.122Z,972.29
2018-01-28T02:43:38.142Z,972.3
2018-01-28T02:44:38.155Z,972.22
2018-01-28T02:45:38.174Z,972.27
2018-01-28T02:46:38.188Z,972.25
2018-01-28T02:47:38.203Z,972.3
2018-01-28T02:48:38.220Z,972.33
2018-01-28T02:49:38.237Z,972.32
2018-01-28T02:50:38.253Z,972.3
2018-01-28T02:51:38.268Z,972.3
2018-01-28T02:52:38.286Z,972.34
2018-01-28T02:53:38.303Z,972.32
2018-01-28T02:54:38.318Z,972.32
2018-01-28T02:55:38.334Z,972.31
2018-01-28T02:56:38.351Z,972.32
2018-01-28T02:57:38.368Z,972.37
2018-01-28T02:58:38.382Z,972.4
2018-01-28T02:59:38.400Z,972.39
2018-01-28T03:00:38.416Z,972.35
2018-01-28T03:01:38.430Z,972.37
2018-01-28T03:02:38.447Z,972.36
2018-01-28T03:03:38.464Z,972.35
2018-01-28T03:04:38.482Z,972.29
2018-01-28T03:05:38.497Z,972.4
2018-01-28T03:06:38.513Z,972.37
2018-01-28T03:07:38.529Z,972.34
2018-01-28T03:08:38.547Z,972.39
2018-01-28T03:09:38.561Z,972.38
2018-01-28T03:10:38.579Z,972.35
2018-01-28T03:11:38.593Z,972.34
2018-01-28T03:12:38.611Z,972.39
2018-01-28T03:13:38.628Z,972.35
2018-01-28T03:14:38.644Z,972.3
2018-01-28T03:15:38.660Z,972.27
2018-01-28T03:16:38.675Z,972.31
2018-01-28T03:17:38.692Z,972.31
2018-01-28T03:18:38.708Z,972.37
2018-01-28T03:19:38.726Z,972.28
2018-01-28T03:20:38.742Z,972.31
2018-01-28T03:21:38.758Z,972.27
2018-01-28T03:22:38.774Z,972.41
2018-01-28T03:23:38.789Z,972.32
2018-01-28T03:24:38.807Z,972.35
2018-01-28T03:25:38.823Z,972.31
2018-01-28T03:26:38.840Z,972.31
2018-01-28T03:27:38.858Z,972.3
2018-01-28T03:28:38.871Z,972.17
2018-01-28T03:29:38.888Z,972.36
2018-01-28T03:30:38.902Z,972.32
2018-01-28T03:31:38.917Z,972.32
2018-01-28T03:32:38.936Z,972.35
2018-01-28T03:33:38.950Z,972.36
2018-01-28T03:34:38.967Z,972.38
2018-01-28T03:35:39.003Z,972.4
2018-01-28T03:36:39.000Z,972.39
2018-01-28T03:37:39.016Z,972.39
2018-01-28T03:38:39.031Z,972.43
2018-01-28T03:39:39.051Z,972.38
2018-01-28T03:40:39.062Z,972.39
2018-01-28T03:41:39.078Z,972.38
2018-01-28T03:42:39.094Z,972.41
2018-01-28T03:43:39.110Z,972.41
2018-01-28T03:44:39.127Z,972.39
2018-01-28T03:45:39.142Z,972.42
2018-01-28T03:46:39.159Z,972.45
2018-01-28T03:47:39.176Z,972.41
2018-01-28T03:48:39.191Z,972.46
2018-01-28T03:49:39.207Z,972.4
2018-01-28T03:50:39.224Z,972.43
2018-01-28T03:51:39.241Z,972.43
2018-01-28T03:52:39.256Z,972.42
2018-01-28T03:53:39.273Z,972.44
2018-01-28T03:54:39.289Z,972.39
2018-01-28T03:55:39.305Z,972.43
2018-01-28T03:56:39.320Z,972.43
2018-01-28T03:57:39.354Z,972.38
2018-01-28T03:58:39.353Z,972.36
2018-01-28T03:59:39.375Z,972.42
2018-01-28T04:00:39.385Z,972.34
2018-01-28T04:01:39.403Z,972.36
2018-01-28T04:02:39.417Z,972.31
2018-01-28T04:03:39.439Z,972.33
2018-01-28T04:04:39.450Z,972.38
2018-01-28T04:05:39.469Z,972.43
2018-01-28T04:06:39.482Z,972.44
2018-01-28T04:07:39.498Z,972.35
2018-01-28T04:08:39.515Z,972.39
2018-01-28T04:09:39.531Z,972.36
2018-01-28T04:10:39.548Z,972.36
2018-01-28T04:11:39.565Z,972.36
2018-01-28T04:12:39.628Z,972.36
2018-01-28T04:13:39.597Z,972.38
2018-01-28T04:14:39.611Z,972.33
2018-01-28T04:15:39.629Z,972.32
2018-01-28T04:16:39.649Z,972.27
2018-01-28T04:17:39.661Z,972.19
2018-01-28T04:18:39.676Z,972.2
2018-01-28T04:19:39.709Z,972.16
2018-01-28T04:20:39.709Z,972.17
2018-01-28T04:21:39.726Z,972.12
2018-01-28T04:22:39.741Z,972.09
2018-01-28T04:23:39.757Z,972.11
2018-01-28T04:24:39.774Z,972.03
2018-01-28T04:25:39.795Z,972
2018-01-28T04:26:39.806Z,972.07
2018-01-28T04:27:39.822Z,972.07
2018-01-28T04:28:39.838Z,972.13
2018-01-28T04:29:39.855Z,972.13
2018-01-28T04:30:39.869Z,972.11
2018-01-28T04:31:39.887Z,972.1
2018-01-28T04:32:39.903Z,972.06
2018-01-28T04:33:39.925Z,972.05
2018-01-28T04:34:39.934Z,972.07
2018-01-28T04:35:39.952Z,972.12
2018-01-28T04:36:39.966Z,972.06
2018-01-28T04:37:39.985Z,972.06
2018-01-28T04:38:40.000Z,972.01
2018-01-28T04:39:40.016Z,972.04
2018-01-28T04:40:40.032Z,971.99
2018-01-28T04:41:40.056Z,972.02
2018-01-28T04:42:40.065Z,972.06
2018-01-28T04:43:40.080Z,972.03
2018-01-28T04:44:40.097Z,972.06
2018-01-28T04:45:40.113Z,972.02
2018-01-28T04:46:40.130Z,972.01
2018-01-28T04:47:40.159Z,972
2018-01-28T04:48:40.181Z,972.01
2018-01-28T04:49:40.177Z,972.05
2018-01-28T04:50:40.194Z,972.03
2018-01-28T04:51:40.209Z,972.06
2018-01-28T04:52:40.224Z,972.04
2018-01-28T04:53:40.241Z,971.99
2018-01-28T04:54:40.257Z,972
2018-01-28T04:55:40.275Z,971.99
2018-01-28T04:56:40.290Z,971.99
2018-01-28T04:57:40.307Z,972.01
2018-01-28T04:58:40.323Z,971.96
2018-01-28T04:59:40.338Z,971.99
2018-01-28T05:00:40.354Z,972.09
2018-01-28T05:01:40.373Z,972
2018-01-28T05:02:40.390Z,971.99
2018-01-28T05:03:40.405Z,972.02
2018-01-28T05:04:40.418Z,972.04
2018-01-28T05:05:40.433Z,972.13
2018-01-28T05:06:40.450Z,972.1
2018-01-28T05:07:40.469Z,972.1
2018-01-28T05:08:40.485Z,972.16
2018-01-28T05:09:40.499Z,972.13
2018-01-28T05:10:40.531Z,972.14
2018-01-28T05:11:40.530Z,972.2
2018-01-28T05:12:40.547Z,972.18
2018-01-28T05:13:40.562Z,972.13
2018-01-28T05:14:40.577Z,972.14
2018-01-28T05:15:40.594Z,972.12
2018-01-28T05:16:40.610Z,972.07
2018-01-28T05:17:40.628Z,972.06
2018-01-28T05:18:40.644Z,972.13
2018-01-28T05:19:40.660Z,972.08
2018-01-28T05:20:40.678Z,972.18
2018-01-28T05:21:40.692Z,972.08
2018-01-28T05:22:40.709Z,972.12
2018-01-28T05:23:40.724Z,972.16
2018-01-28T05:24:40.739Z,972.26
2018-01-28T05:25:40.759Z,972.24
2018-01-28T05:26:40.771Z,972.23
2018-01-28T05:27:40.787Z,972.21
2018-01-28T05:28:40.802Z,972.23
2018-01-28T05:29:40.818Z,972.19
2018-01-28T05:30:40.836Z,972.16
2018-01-28T05:31:40.849Z,972.18
2018-01-28T05:32:40.884Z,972.18
2018-01-28T05:33:40.882Z,972.18
2018-01-28T05:34:40.898Z,972.2
2018-01-28T05:35:40.914Z,972.24
2018-01-28T05:36:40.929Z,972.18
2018-01-28T05:37:40.945Z,972.24
2018-01-28T05:38:40.961Z,972.27
2018-01-28T05:39:40.995Z,972.23
2018-01-28T05:40:40.992Z,972.23
2018-01-28T05:41:41.008Z,972.26
2018-01-28T05:42:41.025Z,972.24
2018-01-28T05:43:41.039Z,972.24
2018-01-28T05:44:41.056Z,972.23
2018-01-28T05:45:41.072Z,972.22
2018-01-28T05:46:41.088Z,972.18
2018-01-28T05:47:41.111Z,972.27
2018-01-28T05:48:41.121Z,972.29
2018-01-28T05:49:41.134Z,972.35
2018-01-28T05:50:41.151Z,972.3
2018-01-28T05:51:41.166Z,972.25
2018-01-28T05:52:41.182Z,972.31
2018-01-28T05:53:41.197Z,972.24
2018-01-28T05:54:41.235Z,972.25
2018-01-28T05:55:41.229Z,972.25
2018-01-28T05:56:41.247Z,972.2
2018-01-28T05:57:41.262Z,972.23
2018-01-28T05:58:41.278Z,972.19
2018-01-28T05:59:41.293Z,972.18
2018-01-28T06:00:41.308Z,972.1
2018-01-28T06:01:41.325Z,972.14
2018-01-28T06:02:41.340Z,972.11
2018-01-28T06:03:41.357Z,972.16
2018-01-28T06:04:41.371Z,972.13
2018-01-28T06:05:41.388Z,972.09
2018-01-28T06:06:41.404Z,972.15
2018-01-28T06:07:41.421Z,972.12
2018-01-28T06:08:41.434Z,972.13
2018-01-28T06:09:41.463Z,972.16
2018-01-28T06:10:41.467Z,972.19
2018-01-28T06:11:41.481Z,972.24
2018-01-28T06:12:41.497Z,972.18
2018-01-28T06:13:41.513Z,972.21
2018-01-28T06:14:41.530Z,972.22
2018-01-28T06:15:41.544Z,972.23
2018-01-28T06:16:41.560Z,972.2
2018-01-28T06:17:41.576Z,972.22
2018-01-28T06:18:41.593Z,972.12
2018-01-28T06:19:41.608Z,972.18
2018-01-28T06:20:41.624Z,972.23
2018-01-28T06:21:41.642Z,972.24
2018-01-28T06:22:41.655Z,972.27
2018-01-28T06:23:41.672Z,972.34
2018-01-28T06:24:41.688Z,972.22
2018-01-28T06:25:41.704Z,972.22
2018-01-28T06:26:41.719Z,972.22
2018-01-28T06:27:41.735Z,972.2
2018-01-28T06:28:41.752Z,972.13
2018-01-28T06:29:41.814Z,972.14
2018-01-28T06:30:41.788Z,972.13
2018-01-28T06:31:41.811Z,972.08
2018-01-28T06:32:41.816Z,972.05
2018-01-28T06:33:41.831Z,972.08
2018-01-28T06:34:41.848Z,972.02
2018-01-28T06:35:41.864Z,972.05
2018-01-28T06:36:41.880Z,972.01
2018-01-28T06:37:41.896Z,972.08
2018-01-28T06:38:41.912Z,971.97
2018-01-28T06:39:41.928Z,972.06
2018-01-28T06:40:41.943Z,972.11
2018-01-28T06:41:41.959Z,972.09
2018-01-28T06:42:41.977Z,972.11
2018-01-28T06:43:41.992Z,972.12
2018-01-28T06:44:42.007Z,972.17
2018-01-28T06:45:42.023Z,972.25
2018-01-28T06:46:42.038Z,972.22
2018-01-28T06:47:42.054Z,972.26
2018-01-28T06:48:42.069Z,972.32
2018-01-28T06:49:42.086Z,972.32
2018-01-28T06:50:42.104Z,972.31
2018-01-28T06:51:42.117Z,972.3
2018-01-28T06:52:42.134Z,972.31
2018-01-28T06:53:42.163Z,972.34
2018-01-28T06:54:42.168Z,972.36
2018-01-28T06:55:42.181Z,972.41
2018-01-28T06:56:42.196Z,972.34
2018-01-28T06:57:42.213Z,972.38
2018-01-28T06:58:42.228Z,972.47
2018-01-28T06:59:42.244Z,972.47
2018-01-28T07:00:42.258Z,972.48
2018-01-28T07:01:42.276Z,972.53
2018-01-28T07:02:42.291Z,972.47
2018-01-28T07:03:42.310Z,972.53
2018-01-28T07:04:42.323Z,972.56
2018-01-28T07:05:42.344Z,972.5
2018-01-28T07:06:42.352Z,972.53
2018-01-28T07:07:42.369Z,972.58
2018-01-28T07:08:42.386Z,972.57
2018-01-28T07:09:42.402Z,972.57
2018-01-28T07:10:42.417Z,972.6
2018-01-28T07:11:42.462Z,972.64
2018-01-28T07:12:42.448Z,972.62
2018-01-28T07:13:42.463Z,972.63
2018-01-28T07:14:42.479Z,972.64
2018-01-28T07:15:42.512Z,972.66
2018-01-28T07:16:42.511Z,972.67
2018-01-28T07:17:42.527Z,972.7
2018-01-28T07:18:42.542Z,972.67
2018-01-28T07:19:42.558Z,972.72
2018-01-28T07:20:42.573Z,972.77
2018-01-28T07:21:42.590Z,972.75
2018-01-28T07:22:42.607Z,972.76
2018-01-28T07:23:42.622Z,972.72
2018-01-28T07:24:42.636Z,972.73
2018-01-28T07:25:42.654Z,972.63
2018-01-28T07:26:42.669Z,972.65
2018-01-28T07:27:42.686Z,972.64
2018-01-28T07:28:42.701Z,972.67
2018-01-28T07:29:42.717Z,972.65
2018-01-28T07:30:42.734Z,972.59
2018-01-28T07:31:42.749Z,972.59
2018-01-28T07:32:42.765Z,972.59
2018-01-28T07:33:42.782Z,972.57
2018-01-28T07:34:42.798Z,972.59
2018-01-28T07:35:42.816Z,972.59
2018-01-28T07:36:42.831Z,972.61
2018-01-28T07:37:42.864Z,972.54
2018-01-28T07:38:42.864Z,972.55
2018-01-28T07:39:42.878Z,972.54
2018-01-28T07:40:42.896Z,972.63
2018-01-28T07:41:42.913Z,972.55
2018-01-28T07:42:42.929Z,972.54
2018-01-28T07:43:42.944Z,972.56
2018-01-28T07:44:42.960Z,972.59
2018-01-28T07:45:42.977Z,972.59
2018-01-28T07:46:42.993Z,972.63
2018-01-28T07:47:43.010Z,972.66
2018-01-28T07:48:43.027Z,972.62
2018-01-28T07:49:43.042Z,972.68
2018-01-28T07:50:43.061Z,972.63
2018-01-28T07:51:43.076Z,972.6
2018-01-28T07:52:43.091Z,972.64
2018-01-28T07:53:43.107Z,972.67
2018-01-28T07:54:43.122Z,972.59
2018-01-28T07:55:43.140Z,972.66
2018-01-28T07:56:43.158Z,972.71
2018-01-28T07:57:43.171Z,972.67
2018-01-28T07:58:43.186Z,972.64
2018-01-28T07:59:43.215Z,972.66
2018-01-28T08:00:43.221Z,972.63
2018-01-28T08:01:43.236Z,972.73
2018-01-28T08:02:43.252Z,972.63
2018-01-28T08:03:43.269Z,972.68
2018-01-28T08:04:43.286Z,972.72
2018-01-28T08:05:43.303Z,972.66
2018-01-28T08:06:43.340Z,972.68
2018-01-28T08:07:43.336Z,972.66
2018-01-28T08:08:43.352Z,972.72
2018-01-28T08:09:43.368Z,972.68
2018-01-28T08:10:43.385Z,972.73
2018-01-28T08:11:43.403Z,972.8
2018-01-28T08:12:43.417Z,972.75
2018-01-28T08:13:43.435Z,972.75
2018-01-28T08:14:43.450Z,972.76
2018-01-28T08:15:43.467Z,972.74
2018-01-28T08:16:43.483Z,972.78
2018-01-28T08:17:43.555Z,972.71
2018-01-28T08:18:43.516Z,972.77
2018-01-28T08:19:43.533Z,972.72
2018-01-28T08:20:43.550Z,972.75
2018-01-28T08:21:43.568Z,972.74
2018-01-28T08:22:43.584Z,972.73
2018-01-28T08:23:43.600Z,972.79
2018-01-28T08:24:43.617Z,972.74
2018-01-28T08:25:43.634Z,972.76
2018-01-28T08:26:43.648Z,972.76
2018-01-28T08:27:43.666Z,972.81
2018-01-28T08:28:43.692Z,972.77
2018-01-28T08:29:43.700Z,972.78
2018-01-28T08:30:43.717Z,972.76
2018-01-28T08:31:43.733Z,972.81
2018-01-28T08:32:43.750Z,972.79
2018-01-28T08:33:43.767Z,972.8
2018-01-28T08:34:43.784Z,972.79
2018-01-28T08:35:43.801Z,972.78
2018-01-28T08:36:43.823Z,972.68
2018-01-28T08:37:43.835Z,972.73
2018-01-28T08:38:43.851Z,972.75
2018-01-28T08:39:43.868Z,972.74
2018-01-28T08:40:43.886Z,972.77
2018-01-28T08:41:43.900Z,972.79
2018-01-28T08:42:43.918Z,972.77
2018-01-28T08:43:43.935Z,972.81
2018-01-28T08:44:43.952Z,972.89
2018-01-28T08:45:43.969Z,972.89
2018-01-28T08:46:43.987Z,972.88
2018-01-28T08:47:44.005Z,972.9
2018-01-28T08:48:44.019Z,972.9
2018-01-28T08:49:44.036Z,972.9
2018-01-28T08:50:44.057Z,972.88
2018-01-28T08:51:44.072Z,973.07
2018-01-28T08:52:44.091Z,972.91
2018-01-28T08:53:44.105Z,973
2018-01-28T08:54:44.127Z,972.96
2018-01-28T08:55:44.139Z,972.99
2018-01-28T08:56:44.156Z,972.98
2018-01-28T08:57:44.172Z,973.01
2018-01-28T08:58:44.202Z,973.06
2018-01-28T08:59:44.209Z,973
2018-01-28T09:00:44.223Z,973.04
2018-01-28T09:01:44.245Z,973.04
2018-01-28T09:02:44.258Z,973.03
2018-01-28T09:03:44.275Z,973
2018-01-28T09:04:44.292Z,973.04
2018-01-28T09:05:44.328Z,973.12
2018-01-28T09:06:44.326Z,973.1
2018-01-28T09:07:44.344Z,973.16
2018-01-28T09:08:44.361Z,973.17
2018-01-28T09:09:44.379Z,973.16
2018-01-28T09:10:44.396Z,973.21
2018-01-28T09:11:44.414Z,973.18
2018-01-28T09:12:44.430Z,973.25
2018-01-28T09:13:44.449Z,973.25
2018-01-28T09:14:44.467Z,973.29
2018-01-28T09:15:44.482Z,973.28
2018-01-28T09:16:44.503Z,973.25
2018-01-28T09:17:44.518Z,973.27
2018-01-28T09:18:44.534Z,973.29
2018-01-28T09:19:44.558Z,973.28
2018-01-28T09:20:44.584Z,973.33
2018-01-28T09:21:44.589Z,973.3
2018-01-28T09:22:44.612Z,973.33
2018-01-28T09:23:44.623Z,973.29
2018-01-28T09:24:44.642Z,973.32
2018-01-28T09:25:44.659Z,973.34
2018-01-28T09:26:44.676Z,973.33
2018-01-28T09:27:44.695Z,973.39
2018-01-28T09:28:44.712Z,973.35
2018-01-28T09:29:44.730Z,973.39
2018-01-28T09:30:44.747Z,973.39
2018-01-28T09:31:44.777Z,973.45
2018-01-28T09:32:44.782Z,973.43
2018-01-28T09:33:44.800Z,973.4
2018-01-28T09:34:44.818Z,973.54
2018-01-28T09:35:44.838Z,973.5
2018-01-28T09:36:44.854Z,973.51
2018-01-28T09:37:44.872Z,973.48
2018-01-28T09:38:44.889Z,973.59
2018-01-28T09:39:44.908Z,973.53
2018-01-28T09:40:44.926Z,973.53
2018-01-28T09:41:44.944Z,973.58
2018-01-28T09:42:44.963Z,973.54
2018-01-28T09:43:44.979Z,973.6
2018-01-28T09:44:44.998Z,973.63
2018-01-28T09:45:45.043Z,973.71
2018-01-28T09:46:45.034Z,973.63
2018-01-28T09:47:45.051Z,973.69
2018-01-28T09:48:45.069Z,973.66
2018-01-28T09:49:45.087Z,973.69
2018-01-28T09:50:45.124Z,973.66
2018-01-28T09:51:45.122Z,973.62
2018-01-28T09:52:45.140Z,973.63
2018-01-28T09:53:45.157Z,973.65
2018-01-28T09:54:45.174Z,973.59
2018-01-28T09:55:45.192Z,973.61
2018-01-28T09:56:45.210Z,973.62
2018-01-28T09:57:45.248Z,973.6
2018-01-28T09:58:45.245Z,973.6
2018-01-28T09:59:45.263Z,973.67
2018-01-28T10:00:45.281Z,973.63
2018-01-28T10:01:45.297Z,973.64
2018-01-28T10:02:45.315Z,973.57
2018-01-28T10:03:45.332Z,973.6
2018-01-28T10:04:45.349Z,973.66
2018-01-28T10:05:45.368Z,973.6
2018-01-28T10:06:45.384Z,973.65
2018-01-28T10:07:45.402Z,973.65
2018-01-28T10:08:45.424Z,973.65
2018-01-28T10:09:45.437Z,973.71
2018-01-28T10:10:45.455Z,973.7
2018-01-28T10:11:45.473Z,973.68
2018-01-28T10:12:45.491Z,973.72
2018-01-28T10:13:45.510Z,973.71
2018-01-28T10:14:45.526Z,973.76
2018-01-28T10:15:45.545Z,973.69
2018-01-28T10:16:45.561Z,973.69
2018-01-28T10:17:45.580Z,973.67
2018-01-28T10:18:45.597Z,973.63
2018-01-28T10:19:45.618Z,973.66
2018-01-28T10:20:45.633Z,973.64
2018-01-28T10:21:45.650Z,973.68
2018-01-28T10:22:45.668Z,973.63
2018-01-28T10:23:45.687Z,973.71
2018-01-28T10:24:45.704Z,973.66
2018-01-28T10:25:45.722Z,973.64
2018-01-28T10:26:45.741Z,973.57
2018-01-28T10:27:45.760Z,973.63
2018-01-28T10:28:45.775Z,973.57
2018-01-28T10:29:45.794Z,973.54
2018-01-28T10:30:45.811Z,973.6
2018-01-28T10:31:45.829Z,973.64
2018-01-28T10:32:45.848Z,973.61
2018-01-28T10:33:45.866Z,973.67
2018-01-28T10:34:45.884Z,973.64
2018-01-28T10:35:45.900Z,973.62
2018-01-28T10:36:45.919Z,973.6
2018-01-28T10:37:45.936Z,973.62
2018-01-28T10:38:45.954Z,973.72
2018-01-28T10:39:45.972Z,973.6
2018-01-28T10:40:45.991Z,973.63
2018-01-28T10:41:46.021Z,973.5
2018-01-28T10:42:46.042Z,973.52
2018-01-28T10:43:46.045Z,973.55
2018-01-28T10:44:46.062Z,973.59
2018-01-28T10:45:46.080Z,973.48
2018-01-28T10:46:46.098Z,973.41
2018-01-28T10:47:46.116Z,973.42
2018-01-28T10:48:46.135Z,973.32
2018-01-28T10:49:46.169Z,973.41
2018-01-28T10:50:46.169Z,973.38
2018-01-28T10:51:46.189Z,973.31
2018-01-28T10:52:46.208Z,973.28
2018-01-28T10:53:46.224Z,973.26
2018-01-28T10:54:46.254Z,973.27
2018-01-28T10:55:46.272Z,973.3
2018-01-28T10:56:46.278Z,973.28
2018-01-28T10:57:46.297Z,973.33
2018-01-28T10:58:46.315Z,973.31
2018-01-28T10:59:46.345Z,973.32
2018-01-28T11:00:46.351Z,973.28
2018-01-28T11:01:46.370Z,973.32
2018-01-28T11:02:46.387Z,973.33
2018-01-28T11:03:46.406Z,973.31
2018-01-28T11:04:46.423Z,973.35
2018-01-28T11:05:46.440Z,973.31
2018-01-28T11:06:46.465Z,973.3
2018-01-28T11:07:46.481Z,973.25
2018-01-28T11:08:46.496Z,973.33
2018-01-28T11:09:46.514Z,973.31
2018-01-28T11:10:46.533Z,973.37
2018-01-28T11:11:46.550Z,973.35
2018-01-28T11:12:46.569Z,973.29
2018-01-28T11:13:46.591Z,973.3
2018-01-28T11:14:46.606Z,973.35
2018-01-28T11:15:46.626Z,973.38
2018-01-28T11:16:46.643Z,973.27
2018-01-28T11:17:46.662Z,973.28
2018-01-28T11:18:46.679Z,973.31
2018-01-28T11:19:46.698Z,973.32
2018-01-28T11:20:46.728Z,973.36
2018-01-28T11:21:46.735Z,973.34
2018-01-28T11:22:46.752Z,973.32
2018-01-28T11:23:46.770Z,973.39
2018-01-28T11:24:46.790Z,973.29
2018-01-28T11:25:46.807Z,973.41
2018-01-28T11:26:46.826Z,973.25
2018-01-28T11:27:46.845Z,973.31
2018-01-28T11:28:46.864Z,973.16
2018-01-28T11:29:46.883Z,973.26
2018-01-28T11:30:46.901Z,973.22
2018-01-28T11:31:46.920Z,973.28
2018-01-28T11:32:46.939Z,973.22
2018-01-28T11:33:46.957Z,973.19
2018-01-28T11:34:46.982Z,973.26
2018-01-28T11:35:46.996Z,973.25
2018-01-28T11:36:47.026Z,973.24
2018-01-28T11:37:47.034Z,973.21
2018-01-28T11:38:47.065Z,973.25
2018-01-28T11:39:47.072Z,973.19
2018-01-28T11:40:47.092Z,973.27
2018-01-28T11:41:47.123Z,973.28
2018-01-28T11:42:47.129Z,973.21
2018-01-28T11:43:47.167Z,973.26
2018-01-28T11:44:47.166Z,973.28
2018-01-28T11:45:47.189Z,973.21
2018-01-28T11:46:47.215Z,973.28
2018-01-28T11:47:47.223Z,973.28
2018-01-28T11:48:47.253Z,973.25
2018-01-28T11:49:47.266Z,973.31
2018-01-28T11:50:47.281Z,973.31
2018-01-28T11:51:47.300Z,973.34
2018-01-28T11:52:47.318Z,973.34
2018-01-28T11:53:47.338Z,973.37
2018-01-28T11:54:47.357Z,973.38
2018-01-28T11:55:47.374Z,973.36
2018-01-28T11:56:47.394Z,973.36
2018-01-28T11:57:47.426Z,973.32
2018-01-28T11:58:47.446Z,973.36
2018-01-28T11:59:47.454Z,973.31
2018-01-28T12:00:47.471Z,973.35
2018-01-28T12:01:47.492Z,973.39
2018-01-28T12:02:47.523Z,973.34
2018-01-28T12:03:47.530Z,973.38
2018-01-28T12:04:47.550Z,973.35
2018-01-28T12:05:47.568Z,973.4
2018-01-28T12:06:47.587Z,973.43
2018-01-28T12:07:47.619Z,973.38
2018-01-28T12:08:47.638Z,973.4
2018-01-28T12:09:47.649Z,973.29
2018-01-28T12:10:47.664Z,973.29
2018-01-28T12:11:47.697Z,973.33
2018-01-28T12:12:47.726Z,973.25
2018-01-28T12:13:47.737Z,973.25
2018-01-28T12:14:47.742Z,973.3
2018-01-28T12:15:47.775Z,973.21
2018-01-28T12:16:47.781Z,973.29
2018-01-28T12:17:47.801Z,973.32
2018-01-28T12:18:47.820Z,973.33
2018-01-28T12:19:47.852Z,973.22
2018-01-28T12:20:47.859Z,973.29
2018-01-28T12:21:47.878Z,973.29
2018-01-28T12:22:47.898Z,973.27
2018-01-28T12:23:47.922Z,973.37
2018-01-28T12:24:47.949Z,973.28
2018-01-28T12:25:47.957Z,973.27
2018-01-28T12:26:47.977Z,973.32
2018-01-28T12:27:47.997Z,973.2
2018-01-28T12:28:48.020Z,973.35
2018-01-28T12:29:48.035Z,973.31
2018-01-28T12:30:48.067Z,973.23
2018-01-28T12:31:48.075Z,973.18